Time;durP1;ratioP1;P1;durP2;ratioP2;P2;SDS_P1;SDS_P2;PMS_P1;PMS_P2;Temp;Humidity;BMP_temperature;BMP_pressure;BME280_temperature;BME280_humidity;BME280_pressure;Samples;Min_cycle;Max_cycle;Signal;HPM_P1;HPM_P2
2023/05/24 00:01:37;;;;;;;17.88;12.45;;;;;;;;;;6057380;23;20056;-66
2023/05/24 00:04:11;;;;;;;13.35;10.45;;;;;;;;;;6058327;23;20029;-54
2023/05/24 00:06:38;;;;;;;;;;;;;;;;;;6059807;23;20075;-54
2023/05/24 00:09:12;;;;;;;22.50;14.35;;;;;;;;;;6058226;23;19973;-54
2023/05/24 00:11:39;;;;;;;33.58;19.83;;;;;;;;;;6059212;23;20078;-56
2023/05/24 00:14:06;;;;;;;56.65;16.15;;;;;;;;;;6058770;23;20030;-55
2023/05/24 00:16:41;;;;;;;96.88;24.02;;;;;;;;;;6058213;23;20050;-52
2023/05/24 00:19:09;;;;;;;13.57;11.07;;;;;;;;;;6052443;23;20022;-52
2023/05/24 00:21:44;;;;;;;21.98;12.63;;;;;;;;;;6058744;23;20022;-56
2023/05/24 00:24:12;;;;;;;19.83;14.02;;;;;;;;;;6052969;23;20027;-54
2023/05/24 00:26:40;;;;;;;17.73;13.82;;;;;;;;;;6058593;23;20030;-53
2023/05/24 00:29:14;;;;;;;18.10;13.88;;;;;;;;;;6054948;23;20046;-56
2023/05/24 00:31:41;;;;;;;18.95;13.65;;;;;;;;;;6057178;23;20029;-68
2023/05/24 00:34:15;;;;;;;16.50;12.70;;;;;;;;;;6056811;23;20487;-68
2023/05/24 00:36:42;;;;;;;19.00;13.00;;;;;;;;;;6057721;23;20086;-53
2023/05/24 00:39:09;;;;;;;26.88;15.02;;;;;;;;;;6057589;23;20614;-55
2023/05/24 00:41:43;;;;;;;27.95;17.80;;;;;;;;;;6059564;23;20444;-47
2023/05/24 00:44:10;;;;;;;52.78;21.08;;;;;;;;;;6056880;23;20432;-52
2023/05/24 00:46:43;;;;;;;22.17;15.30;;;;;;;;;;6059353;23;20031;-53
2023/05/24 00:49:11;;;;;;;12.93;11.05;;;;;;;;;;6056074;23;20034;-51
2023/05/24 00:51:38;;;;;;;19.33;11.65;;;;;;;;;;6059398;23;20095;-55
2023/05/24 00:54:13;;;;;;;70.05;14.65;;;;;;;;;;6056904;23;20026;-59
2023/05/24 00:56:41;;;;;;;22.83;12.65;;;;;;;;;;6057434;23;20062;-58
2023/05/24 00:59:15;;;;;;;94.32;16.92;;;;;;;;;;6057898;23;20030;-55
2023/05/24 01:01:45;;;;;;;81.32;10.27;;;;;;;;;;6058528;23;20027;-58
2023/05/24 01:04:13;;;;;;;73.57;12.13;;;;;;;;;;6058091;23;20052;-59
2023/05/24 01:06:52;;;;;;;58.42;13.52;;;;;;;;;;6054325;23;20091;-59
2023/05/24 01:09:25;;;;;;;93.15;12.82;;;;;;;;;;6055359;23;20075;-58
2023/05/24 01:12:04;;;;;;;124.80;19.52;;;;;;;;;;6056932;23;20613;-57
2023/05/24 01:14:41;;;;;;;139.00;16.88;;;;;;;;;;6056053;23;20027;-59
2023/05/24 01:17:20;;;;;;;99.90;24.25;;;;;;;;;;6055711;23;20483;-58
2023/05/24 01:20:00;;;;;;;46.60;14.73;;;;;;;;;;6057701;23;20094;-60
2023/05/24 01:22:45;;;;;;;70.32;15.38;;;;;;;;;;6056310;23;20098;-60
2023/05/24 01:25:22;;;;;;;65.90;19.90;;;;;;;;;;6058072;23;20023;-60
2023/05/24 01:27:56;;;;;;;43.35;15.68;;;;;;;;;;6057453;23;20368;-60
2023/05/24 01:30:25;;;;;;;55.75;17.77;;;;;;;;;;6057709;23;20027;-60
2023/05/24 01:32:59;;;;;;;79.13;22.67;;;;;;;;;;6057550;23;20027;-60
2023/05/24 01:35:26;;;;;;;85.63;18.05;;;;;;;;;;6053660;23;20106;-60
2023/05/24 01:38:00;;;;;;;102.68;15.00;;;;;;;;;;6058543;23;20022;-60
2023/05/24 01:40:34;;;;;;;130.50;16.73;;;;;;;;;;6057054;23;20031;-60
2023/05/24 01:43:08;;;;;;;140.45;16.80;;;;;;;;;;6058682;23;20449;-59
2023/05/24 01:46:02;;;;;;;62.03;19.25;;;;;;;;;;6060584;23;20030;-59
2023/05/24 01:48:46;;;;;;;103.45;20.67;;;;;;;;;;6028671;23;20630;-67
2023/05/24 01:51:35;;;;;;;68.03;14.13;;;;;;;;;;6080606;23;20034;-59
2023/05/24 01:54:11;;;;;;;39.75;14.35;;;;;;;;;;6086917;23;20026;-59
2023/05/24 01:56:47;;;;;;;64.80;13.70;;;;;;;;;;6083513;23;20560;-59
2023/05/24 01:59:14;;;;;;;60.25;18.10;;;;;;;;;;6089272;23;20085;-59
2023/05/24 02:01:48;;;;;;;57.47;14.57;;;;;;;;;;6087716;23;20034;-58
2023/05/24 02:04:15;;;;;;;;;;;;;;;;;;6088827;23;20132;-62
2023/05/24 02:06:49;;;;;;;68.18;12.13;;;;;;;;;;6086056;23;20674;-55
2023/05/24 02:09:17;;;;;;;142.00;15.23;;;;;;;;;;6089718;23;20038;-55
2023/05/24 02:11:44;;;;;;;99.82;12.55;;;;;;;;;;6088630;23;20030;-53
2023/05/24 02:14:18;;;;;;;130.40;18.80;;;;;;;;;;6089670;23;20101;-58
2023/05/24 02:16:46;;;;;;;161.80;26.42;;;;;;;;;;6087917;23;20370;-57
2023/05/24 02:19:20;;;;;;;73.35;15.23;;;;;;;;;;6088447;23;20089;-58
2023/05/24 02:21:47;;;;;;;65.00;14.00;;;;;;;;;;6087585;23;20514;-58
2023/05/24 02:24:21;;;;;;;111.07;13.50;;;;;;;;;;6089352;23;20033;-58
2023/05/24 02:26:48;;;;;;;143.98;15.75;;;;;;;;;;6088514;23;20026;-60
2023/05/24 02:29:15;;;;;;;75.65;12.95;;;;;;;;;;6089153;23;20513;-58
2023/05/24 02:31:55;;;;;;;84.53;12.00;;;;;;;;;;6086678;23;20037;-58
2023/05/24 02:34:22;;;;;;;112.88;16.30;;;;;;;;;;6087638;23;20029;-56
2023/05/24 02:36:56;;;;;;;124.82;22.75;;;;;;;;;;6087596;23;20034;-56
2023/05/24 02:39:29;;;;;;;121.43;24.38;;;;;;;;;;6089491;23;20697;-59
2023/05/24 02:42:04;;;;;;;52.15;15.00;;;;;;;;;;6087392;23;20032;-57
2023/05/24 02:44:31;;;;;;;62.00;17.55;;;;;;;;;;6088227;23;20026;-68
2023/05/24 02:46:59;;;;;;;62.47;15.82;;;;;;;;;;6087513;23;20034;-60
2023/05/24 02:49:33;;;;;;;106.10;25.13;;;;;;;;;;6087643;23;20090;-56
2023/05/24 02:52:06;;;;;;;28.98;12.20;;;;;;;;;;6060890;23;20031;-55
2023/05/24 02:54:41;;;;;;;37.33;14.95;;;;;;;;;;6058226;23;20090;-58
2023/05/24 02:57:08;;;;;;;47.30;14.43;;;;;;;;;;6057841;23;20083;-59
2023/05/24 02:59:35;;;;;;;111.75;29.15;;;;;;;;;;6058668;23;20027;-59
2023/05/24 03:02:12;;;;;;;105.18;25.73;;;;;;;;;;6057959;23;20083;-58
2023/05/24 03:04:39;;;;;;;25.13;11.90;;;;;;;;;;6058793;23;20465;-58
2023/05/24 03:07:13;;;;;;;40.25;15.27;;;;;;;;;;6056888;23;20538;-58
2023/05/24 03:09:40;;;;;;;30.33;10.63;;;;;;;;;;6059301;23;20026;-57
2023/05/24 03:12:08;;;;;;;41.22;13.60;;;;;;;;;;6057305;23;20027;-54
2023/05/24 03:14:42;;;;;;;61.33;15.85;;;;;;;;;;6056849;23;20083;-57
2023/05/24 03:17:09;;;;;;;83.00;12.90;;;;;;;;;;6059040;23;20026;-57
2023/05/24 03:19:36;;;;;;;35.42;12.23;;;;;;;;;;6058595;23;20026;-56
2023/05/24 03:22:10;;;;;;;50.58;12.32;;;;;;;;;;6059350;23;20038;-58
2023/05/24 03:24:37;;;;;;;52.47;12.25;;;;;;;;;;6054156;23;20102;-57
2023/05/24 03:27:11;;;;;;;54.90;15.98;;;;;;;;;;6055685;23;20027;-58
2023/05/24 03:29:38;;;;;;;43.88;14.20;;;;;;;;;;6057522;23;20479;-56
2023/05/24 03:32:05;;;;;;;59.92;14.32;;;;;;;;;;6056419;23;20605;-58
2023/05/24 03:34:39;;;;;;;105.40;21.70;;;;;;;;;;6057575;23;20091;-58
2023/05/24 03:37:06;;;;;;;81.13;20.27;;;;;;;;;;6058420;23;20419;-58
2023/05/24 03:39:40;;;;;;;45.28;15.35;;;;;;;;;;6057654;23;20051;-59
2023/05/24 03:42:07;;;;;;;37.92;11.82;;;;;;;;;;6057249;23;20034;-57
2023/05/24 03:44:34;;;;;;;46.63;14.88;;;;;;;;;;6058361;23;20022;-58
2023/05/24 03:47:08;;;;;;;103.93;22.75;;;;;;;;;;6060193;23;20090;-57
2023/05/24 03:49:35;;;;;;;63.10;17.90;;;;;;;;;;6058672;23;20148;-60
2023/05/24 03:52:15;;;;;;;50.78;12.02;;;;;;;;;;6054685;23;20067;-60
2023/05/24 03:54:44;;;;;;;85.90;19.73;;;;;;;;;;6058610;23;20443;-58
2023/05/24 03:57:18;;;;;;;39.38;12.70;;;;;;;;;;6055394;23;20031;-60
2023/05/24 03:59:51;;;;;;;43.60;15.20;;;;;;;;;;6057388;23;20030;-61
2023/05/24 04:02:26;;;;;;;32.00;11.23;;;;;;;;;;6054627;23;20023;-52
2023/05/24 04:04:53;;;;;;;43.25;12.20;;;;;;;;;;6056632;23;20031;-52
2023/05/24 04:07:23;;;;;;;55.17;12.68;;;;;;;;;;6053457;23;20027;-52
2023/05/24 04:09:57;;;;;;;69.13;9.90;;;;;;;;;;6058098;23;20035;-55
2023/05/24 04:12:24;;;;;;;82.80;13.80;;;;;;;;;;6056757;23;20022;-52
2023/05/24 04:14:58;;;;;;;76.82;10.35;;;;;;;;;;6058092;23;20038;-52
2023/05/24 04:17:26;;;;;;;81.50;11.68;;;;;;;;;;6059051;23;20495;-69
2023/05/24 04:20:00;;;;;;;69.78;15.07;;;;;;;;;;6056762;23;20041;-69
2023/05/24 04:22:35;;;;;;;57.38;12.38;;;;;;;;;;6056723;23;20138;-69
2023/05/24 04:25:02;;;;;;;118.22;23.55;;;;;;;;;;6057342;23;20087;-69
2023/05/24 04:27:37;;;;;;;51.15;10.82;;;;;;;;;;6056749;23;20026;-56
2023/05/24 04:30:04;;;;;;;49.22;11.30;;;;;;;;;;6056815;23;20058;-57
2023/05/24 04:32:39;;;;;;;50.42;10.95;;;;;;;;;;6045129;23;20023;-59
2023/05/24 04:35:14;;;;;;;33.65;9.05;;;;;;;;;;6051743;23;20027;-60
2023/05/24 04:37:41;;;;;;;101.53;11.27;;;;;;;;;;6051308;23;20026;-60
2023/05/24 04:40:09;;;;;;;83.00;12.13;;;;;;;;;;6053069;23;20525;-59
2023/05/24 04:42:43;;;;;;;71.60;10.07;;;;;;;;;;6056028;23;20026;-54
2023/05/24 04:45:10;;;;;;;71.00;12.57;;;;;;;;;;6055274;23;20023;-56
2023/05/24 04:47:37;;;;;;;60.83;12.43;;;;;;;;;;6056796;23;20034;-51
2023/05/24 04:50:24;;;;;;;47.05;10.80;;;;;;;;;;6058797;23;20086;-55
2023/05/24 04:52:57;;;;;;;44.30;10.27;;;;;;;;;;6085861;23;20094;-55
2023/05/24 04:55:32;;;;;;;43.80;8.98;;;;;;;;;;6084689;23;20062;-55
2023/05/24 04:57:59;;;;;;;32.15;8.32;;;;;;;;;;6084304;23;20025;-69
2023/05/24 05:00:27;;;;;;;34.58;8.23;;;;;;;;;;6084702;23;20089;-60
2023/05/24 05:03:01;;;;;;;32.65;10.23;;;;;;;;;;6083615;23;20034;-59
2023/05/24 05:05:28;;;;;;;26.77;9.48;;;;;;;;;;6079854;23;20085;-57
2023/05/24 05:07:56;;;;;;;27.85;9.40;;;;;;;;;;6086222;23;20026;-58
2023/05/24 05:10:30;;;;;;;334.70;20.15;;;;;;;;;;6085738;23;20042;-57
2023/05/24 05:12:57;;;;;;;87.30;10.70;;;;;;;;;;6085475;23;20023;-58
2023/05/24 05:15:31;;;;;;;54.63;10.27;;;;;;;;;;6087538;23;20105;-55
2023/05/24 05:17:59;;;;;;;131.93;11.13;;;;;;;;;;6087871;23;20026;-55
2023/05/24 05:20:26;;;;;;;65.85;9.02;;;;;;;;;;6089415;23;20028;-53
2023/05/24 05:23:00;;;;;;;55.08;8.05;;;;;;;;;;6086712;23;20026;-55
2023/05/24 05:25:27;;;;;;;64.18;10.10;;;;;;;;;;6088468;23;20030;-58
2023/05/24 05:28:01;;;;;;;59.67;9.60;;;;;;;;;;6088503;23;20026;-53
2023/05/24 05:30:28;;;;;;;21.45;8.20;;;;;;;;;;6089858;23;20053;-50
2023/05/24 05:32:55;;;;;;;26.85;8.77;;;;;;;;;;6086509;23;20557;-53
2023/05/24 05:35:29;;;;;;;66.90;9.35;;;;;;;;;;6089700;23;20022;-53
2023/05/24 05:37:56;;;;;;;54.53;10.98;;;;;;;;;;6087123;23;20097;-54
2023/05/24 05:40:23;;;;;;;28.55;9.93;;;;;;;;;;6087883;23;20493;-50
2023/05/24 05:42:57;;;;;;;32.97;8.82;;;;;;;;;;6088292;23;20026;-61
2023/05/24 05:45:24;;;;;;;62.70;12.20;;;;;;;;;;6088958;23;20034;-59
2023/05/24 05:47:58;;;;;;;154.98;15.13;;;;;;;;;;6087930;23;20034;-60
2023/05/24 05:50:37;;;;;;;264.10;17.58;;;;;;;;;;6085437;23;20089;-60
2023/05/24 05:53:12;;;;;;;42.85;10.35;;;;;;;;;;6059331;23;20054;-61
2023/05/24 05:55:39;;;;;;;15.77;9.63;;;;;;;;;;6059556;23;20027;-67
2023/05/24 05:58:06;;;;;;;10.93;8.70;;;;;;;;;;6058957;23;20023;-67
2023/05/24 06:00:41;;;;;;;11.90;9.73;;;;;;;;;;6059985;23;20135;-67
2023/05/24 06:03:08;;;;;;;;;;;;;;;;;;6058672;23;20422;-68
2023/05/24 06:05:42;;;;;;;11.48;9.93;;;;;;;;;;6060184;23;19945;-67
2023/05/24 06:08:09;;;;;;;12.90;10.60;;;;;;;;;;6059452;23;20050;-67
2023/05/24 06:10:36;;;;;;;10.88;9.27;;;;;;;;;;6058383;23;20106;-66
2023/05/24 06:13:11;;;;;;;8.35;6.90;;;;;;;;;;6060033;23;20054;-56
2023/05/24 06:15:38;;;;;;;14.93;11.35;;;;;;;;;;6059214;23;20490;-58
2023/05/24 06:18:12;;;;;;;12.15;10.15;;;;;;;;;;6058643;23;20049;-59
2023/05/24 06:20:39;;;;;;;11.65;9.57;;;;;;;;;;6060345;23;20023;-58
2023/05/24 06:23:07;;;;;;;;;;;;;;;;;;6059872;23;20022;-56
2023/05/24 06:25:42;;;;;;;13.60;10.25;;;;;;;;;;6058112;23;19917;-58
2023/05/24 06:28:10;;;;;;;14.90;12.27;;;;;;;;;;6059012;23;20332;-54
2023/05/24 06:30:44;;;;;;;13.82;10.18;;;;;;;;;;6059946;23;20023;-58
2023/05/24 06:33:11;;;;;;;14.57;11.07;;;;;;;;;;6057925;23;20031;-57
2023/05/24 06:35:39;;;;;;;17.63;12.15;;;;;;;;;;6059357;23;20082;-51
2023/05/24 06:38:13;;;;;;;13.20;10.65;;;;;;;;;;6058779;23;20075;-56
2023/05/24 06:40:40;;;;;;;14.77;10.85;;;;;;;;;;6058299;23;20367;-65
2023/05/24 06:43:15;;;;;;;14.15;11.23;;;;;;;;;;6057737;23;20026;-66
2023/05/24 06:45:42;;;;;;;11.77;8.65;;;;;;;;;;6060360;23;20088;-65
2023/05/24 06:48:09;;;;;;;11.27;9.13;;;;;;;;;;6057604;23;20027;-65
2023/05/24 06:50:49;;;;;;;22.45;12.05;;;;;;;;;;6066613;23;20298;-65
2023/05/24 06:53:17;;;;;;;14.20;10.63;;;;;;;;;;6082705;23;20078;-58
2023/05/24 06:55:51;;;;;;;10.48;8.73;;;;;;;;;;6086982;23;20081;-58
2023/05/24 06:58:18;;;;;;;10.88;9.43;;;;;;;;;;6085876;23;20034;-58
2023/05/24 07:00:45;;;;;;;13.60;8.70;;;;;;;;;;6086986;23;20570;-59
2023/05/24 07:03:20;;;;;;;13.20;8.93;;;;;;;;;;6088242;23;20028;-59
2023/05/24 07:05:47;;;;;;;11.60;9.45;;;;;;;;;;6087821;23;20507;-55
2023/05/24 07:08:21;;;;;;;12.85;9.23;;;;;;;;;;6086924;23;20032;-52
2023/05/24 07:10:48;;;;;;;11.38;9.27;;;;;;;;;;6086577;23;20037;-55
2023/05/24 07:13:15;;;;;;;10.13;8.43;;;;;;;;;;6087332;23;20023;-52
2023/05/24 07:15:49;;;;;;;14.45;9.52;;;;;;;;;;6087459;23;20035;-54
2023/05/24 07:18:16;;;;;;;;;;;;;;;;;;6088132;23;20048;-53
2023/05/24 07:20:50;;;;;;;10.18;7.65;;;;;;;;;;6087459;23;19920;-60
2023/05/24 07:23:17;;;;;;;12.32;8.13;;;;;;;;;;6084093;23;20057;-57
2023/05/24 07:25:44;;;;;;;11.40;8.68;;;;;;;;;;6087318;23;20078;-54
2023/05/24 07:28:19;;;;;;;8.77;7.90;;;;;;;;;;6087512;23;20282;-58
2023/05/24 07:30:47;;;;;;;11.88;9.25;;;;;;;;;;6087209;23;20060;-58
2023/05/24 07:33:21;;;;;;;11.13;8.63;;;;;;;;;;6087384;23;20027;-58
2023/05/24 07:35:50;;;;;;;9.20;7.72;;;;;;;;;;6087781;23;20145;-56
2023/05/24 07:38:24;;;;;;;7.63;6.50;;;;;;;;;;6077182;23;20023;-68
2023/05/24 07:40:51;;;;;;;13.45;6.50;;;;;;;;;;6083225;23;20030;-68
2023/05/24 07:43:18;;;;;;;9.73;6.35;;;;;;;;;;6086048;23;20026;-68
2023/05/24 07:45:52;;;;;;;11.10;6.18;;;;;;;;;;6083019;23;20209;-68
2023/05/24 07:48:20;;;;;;;7.95;6.38;;;;;;;;;;6087500;23;20031;-59
2023/05/24 07:51:00;;;;;;;7.50;5.22;;;;;;;;;;6080293;23;20102;-68
2023/05/24 07:53:36;;;;;;;7.40;6.20;;;;;;;;;;6056471;23;20033;-69
2023/05/24 07:56:10;;;;;;;10.88;6.10;;;;;;;;;;6055597;23;20079;-69
2023/05/24 07:58:39;;;;;;;11.40;5.93;;;;;;;;;;6058152;23;20030;-68
2023/05/24 08:01:06;;;;;;;8.40;5.50;;;;;;;;;;6054937;23;20023;-70
2023/05/24 08:03:40;;;;;;;7.32;5.07;;;;;;;;;;6054777;23;20074;-70
2023/05/24 08:06:08;;;;;;;;;;;;;;;;;;6059033;23;20483;-60
2023/05/24 08:08:42;;;;;;;16.23;5.63;;;;;;;;;;6056517;23;19975;-60
2023/05/24 08:11:09;;;;;;;6.57;5.60;;;;;;;;;;6057261;23;20072;-59
2023/05/24 08:13:36;;;;;;;10.18;5.57;;;;;;;;;;6057655;23;20490;-60
2023/05/24 08:16:10;;;;;;;11.68;5.05;;;;;;;;;;6057240;23;20078;-60
2023/05/24 08:18:37;;;;;;;6.93;5.35;;;;;;;;;;6059378;23;20056;-62
2023/05/24 08:21:11;;;;;;;7.50;5.55;;;;;;;;;;6057356;23;20372;-63
2023/05/24 08:23:38;;;;;;;;;;;;;;;;;;6057618;23;20083;-63
2023/05/24 08:26:05;;;;;;;8.25;5.47;;;;;;;;;;6057887;23;19922;-62
2023/05/24 08:28:39;;;;;;;13.20;5.55;;;;;;;;;;6054831;23;20053;-61
2023/05/24 08:31:06;;;;;;;13.13;5.07;;;;;;;;;;6056553;23;20027;-62
2023/05/24 08:33:41;;;;;;;8.82;5.47;;;;;;;;;;6055791;23;20502;-58
2023/05/24 08:36:09;;;;;;;7.70;5.25;;;;;;;;;;6057010;23;20034;-58
2023/05/24 08:38:36;;;;;;;7.32;5.78;;;;;;;;;;6058500;23;20540;-58
2023/05/24 08:41:10;;;;;;;14.85;5.40;;;;;;;;;;6055974;23;20038;-58
2023/05/24 08:43:38;;;;;;;10.38;5.85;;;;;;;;;;6057083;23;20495;-52
2023/05/24 08:46:13;;;;;;;8.98;5.45;;;;;;;;;;6057211;23;20031;-54
